Time;durP1;ratioP1;P1;durP2;ratioP2;P2;SDS_P1;SDS_P2;PMS_P1;PMS_P2;Temp;Humidity;BMP_temperature;BMP_pressure;BME280_temperature;BME280_humidity;BME280_pressure;Samples;Min_cycle;Max_cycle;Signal;HPM_P1;HPM_P2
2023/02/11 00:00:15;;;;;;;36.53;13.00;;;;;;;3.89;85.12;102399.44;5014754;28;20540;-68
2023/02/11 00:02:42;;;;;;;39.00;14.03;;;;;;;3.91;85.18;102388.53;5013854;28;20432;-68
2023/02/11 00:05:08;;;;;;;31.80;13.27;;;;;;;3.87;85.12;102385.44;5014762;28;20470;-67
2023/02/11 00:07:37;;;;;;;31.77;13.50;;;;;;;3.85;85.54;102395.56;5014178;28;20503;-68
2023/02/11 00:10:05;;;;;;;38.43;13.23;;;;;;;3.85;85.89;102400.06;5011492;28;20468;-68
2023/02/11 00:12:31;;;;;;;29.80;12.17;;;;;;;3.83;85.97;102412.88;5014017;28;20491;-67
2023/02/11 00:14:58;;;;;;;32.00;12.60;;;;;;;3.83;85.98;102418.22;5014651;28;20443;-68
2023/02/11 00:17:24;;;;;;;38.70;14.30;;;;;;;3.89;85.88;102425.41;5014340;28;20455;-68
2023/02/11 00:19:52;;;;;;;27.57;12.10;;;;;;;3.94;85.52;102422.91;5014327;28;20980;-67
2023/02/11 00:22:19;;;;;;;29.60;12.30;;;;;;;3.97;85.61;102409.94;5014165;28;20454;-67
2023/02/11 00:24:47;;;;;;;36.13;12.83;;;;;;;3.98;85.99;102398.16;5014140;28;20436;-68
2023/02/11 00:27:14;;;;;;;39.07;14.07;;;;;;;4.08;85.21;102394.22;5014506;28;20535;-69
2023/02/11 00:29:40;;;;;;;40.10;12.40;;;;;;;4.09;84.70;102394.00;5014481;28;20468;-69
2023/02/11 00:32:07;;;;;;;30.83;12.00;;;;;;;4.09;84.99;102380.59;5014086;28;20498;-69
2023/02/11 00:34:34;;;;;;;28.80;12.47;;;;;;;4.14;85.33;102375.41;5014130;28;20452;-69
2023/02/11 00:37:01;;;;;;;27.13;12.87;;;;;;;4.15;85.58;102371.69;5014245;28;20452;-69
2023/02/11 00:39:28;;;;;;;36.03;12.87;;;;;;;4.21;84.62;102370.84;5013977;28;20455;-69
2023/02/11 00:41:56;;;;;;;35.10;12.10;;;;;;;4.27;84.46;102364.63;5027901;28;20819;-69
2023/02/11 00:44:23;;;;;;;30.73;12.90;;;;;;;4.32;84.48;102388.13;5032676;28;21103;-69
2023/02/11 00:46:50;;;;;;;38.17;13.77;;;;;;;4.31;84.58;102389.16;5013864;28;20963;-69
2023/02/11 00:49:16;;;;;;;32.17;12.13;;;;;;;4.38;84.74;102399.84;5014119;28;20488;-69
2023/02/11 00:51:43;;;;;;;36.10;11.73;;;;;;;4.33;85.27;102400.50;5014079;28;20587;-69
2023/02/11 00:54:10;;;;;;;31.67;12.37;;;;;;;4.38;85.52;102397.16;5014145;28;20531;-69
2023/02/11 00:56:36;;;;;;;31.30;13.60;;;;;;;4.47;84.89;102390.50;5015328;28;20444;-69
2023/02/11 00:59:04;;;;;;;29.40;12.67;;;;;;;4.40;85.28;102385.19;5033745;28;20550;-69
2023/02/11 01:01:31;;;;;;;39.80;14.10;;;;;;;4.53;85.18;102377.06;5033419;28;20484;-69
2023/02/11 01:03:57;;;;;;;44.67;13.13;;;;;;;4.58;85.00;102360.31;5033609;28;20450;-68
2023/02/11 01:06:24;;;;;;;37.60;12.47;;;;;;;4.63;84.99;102346.25;5033687;28;20447;-69
2023/02/11 01:08:50;;;;;;;38.77;14.43;;;;;;;4.64;85.30;102348.69;5033137;28;21083;-69
2023/02/11 01:11:19;;;;;;;35.23;12.73;;;;;;;4.65;85.45;102346.81;5025742;28;20494;-69
2023/02/11 01:13:46;;;;;;;35.97;14.07;;;;;;;4.71;85.37;102332.56;5013246;28;20953;-69
2023/02/11 01:16:15;;;;;;;28.80;12.03;;;;;;;4.72;85.51;102331.50;5012927;28;20440;-69
2023/02/11 01:18:43;;;;;;;31.97;12.10;;;;;;;4.76;84.74;102320.13;5013161;28;20476;-69
2023/02/11 01:21:09;;;;;;;34.90;13.80;;;;;;;4.79;84.25;102338.47;5013526;28;20459;-69
2023/02/11 01:23:36;;;;;;;38.00;13.70;;;;;;;4.84;84.04;102323.56;5013501;28;20455;-69
2023/02/11 01:26:02;;;;;;;27.67;12.40;;;;;;;4.86;84.19;102333.03;5013469;28;20440;-69
2023/02/11 01:28:30;;;;;;;30.17;11.90;;;;;;;4.77;84.51;102331.66;5013602;28;20551;-69
2023/02/11 01:30:57;;;;;;;32.23;13.00;;;;;;;4.76;84.48;102322.81;5013094;28;20876;-69
2023/02/11 01:33:25;;;;;;;31.20;12.27;;;;;;;4.81;84.57;102320.28;5013298;28;20522;-69
2023/02/11 01:35:52;;;;;;;33.97;13.70;;;;;;;4.79;84.77;102308.94;5013089;28;20448;-69
2023/02/11 01:38:20;;;;;;;34.67;13.40;;;;;;;4.86;84.31;102305.38;5012932;28;20495;-68
2023/02/11 01:40:48;;;;;;;32.17;12.77;;;;;;;4.82;84.56;102305.00;5013517;28;20532;-69
2023/02/11 01:43:15;;;;;;;29.40;12.10;;;;;;;4.85;84.26;102298.38;5012827;28;20451;-69
2023/02/11 01:45:57;;;;;;;27.53;12.30;;;;;;;4.85;84.53;102291.13;5013203;28;20552;-69
2023/02/11 01:48:29;;;;;;;29.83;12.27;;;;;;;4.79;84.65;102290.16;5012895;28;21299;-69
2023/02/11 01:51:01;;;;;;;37.50;13.10;;;;;;;4.86;84.66;102298.13;5012525;28;20878;-69
2023/02/11 01:59:05;;;;;;;30.27;14.50;;;;;;;4.77;85.76;102276.13;5012882;28;20463;-69
2023/02/11 02:01:35;;;;;;;29.13;11.83;;;;;;;4.77;85.86;102270.75;5012511;28;20442;-69
2023/02/11 02:04:04;;;;;;;36.63;12.80;;;;;;;4.85;85.47;102258.09;5013164;28;20518;-69
2023/02/11 02:06:35;;;;;;;38.03;14.13;;;;;;;4.85;85.40;102261.59;5013359;28;20523;-69
2023/02/11 02:09:05;;;;;;;33.93;12.50;;;;;;;4.87;85.50;102262.22;5013828;28;20487;-69
2023/02/11 02:11:32;;;;;;;35.70;11.50;;;;;;;4.88;85.59;102273.78;5012433;28;20973;-67
2023/02/11 02:13:59;;;;;;;31.00;12.30;;;;;;;4.85;85.73;102272.34;5012715;28;20490;-69
2023/02/11 02:16:31;;;;;;;34.40;13.50;;;;;;;4.94;85.86;102267.50;5013038;28;20803;-68
2023/02/11 02:19:14;;;;;;;32.47;13.70;;;;;;;5.00;85.34;102262.09;5012689;28;20456;-69
2023/02/11 02:22:03;;;;;;;28.53;11.90;;;;;;;4.96;85.56;102265.44;5012054;28;20527;-69
2023/02/11 02:24:59;;;;;;;30.07;13.33;;;;;;;4.97;85.66;102284.00;5013113;28;20440;-70
2023/02/11 02:27:38;;;;;;;35.40;13.23;;;;;;;5.04;85.51;102289.28;5002719;28;20991;-69
2023/02/11 02:30:29;;;;;;;39.03;13.60;;;;;;;5.04;85.67;102278.56;5016856;28;20431;-69
2023/02/11 02:33:13;;;;;;;32.27;11.83;;;;;;;5.07;85.74;102276.25;5016129;28;20548;-70
2023/02/11 02:35:47;;;;;;;36.83;13.57;;;;;;;5.05;85.96;102270.28;5016327;28;20815;-68
2023/02/11 02:38:19;;;;;;;30.27;12.57;;;;;;;5.04;85.88;102279.38;5031747;28;20550;-69
2023/02/11 02:40:49;;;;;;;38.53;13.50;;;;;;;5.02;85.85;102260.00;5033315;28;20923;-69
2023/02/11 02:43:17;;;;;;;39.27;13.30;;;;;;;4.93;86.74;102241.72;5016616;28;20463;-69
2023/02/11 02:45:44;;;;;;;25.57;11.97;;;;;;;4.98;86.77;102240.00;5016412;28;20519;-69
2023/02/11 02:48:26;;;;;;;32.73;12.97;;;;;;;5.01;86.79;102230.69;5016409;28;20547;-69
2023/02/11 02:51:02;;;;;;;30.13;13.00;;;;;;;5.04;86.45;102246.31;5016168;28;20898;-69
2023/02/11 02:53:37;;;;;;;31.20;13.47;;;;;;;5.01;86.76;102238.75;5023148;28;21027;-69
2023/02/11 02:56:09;;;;;;;24.53;11.40;;;;;;;5.05;86.80;102246.13;5036158;28;20435;-69
2023/02/11 02:58:55;;;;;;;23.00;10.40;;;;;;;4.98;87.31;102245.34;5035744;28;20557;-69
2023/02/11 03:01:30;;;;;;;45.80;16.77;;;;;;;4.98;87.23;102244.53;5034954;28;20486;-69
2023/02/11 03:04:05;;;;;;;39.43;14.00;;;;;;;5.05;87.04;102234.56;5035971;28;20462;-69
2023/02/11 03:06:39;;;;;;;34.00;13.20;;;;;;;5.06;87.53;102230.84;5035956;28;20466;-67
2023/02/11 03:09:10;;;;;;;35.77;12.63;;;;;;;5.05;87.36;102221.13;5021421;28;20571;-69
2023/02/11 03:11:37;;;;;;;29.77;12.13;;;;;;;5.09;87.15;102226.84;5015531;28;20476;-69
2023/02/11 03:14:09;;;;;;;27.60;13.90;;;;;;;5.11;87.12;102217.53;5015633;28;20448;-69
2023/02/11 03:16:38;;;;;;;29.10;12.90;;;;;;;5.09;87.19;102219.66;5015954;28;20502;-69
2023/02/11 03:19:12;;;;;;;30.13;13.27;;;;;;;5.02;87.74;102225.06;5015300;28;20471;-69
2023/02/11 03:21:40;;;;;;;32.00;12.17;;;;;;;5.03;87.90;102233.94;5015211;28;20853;-69
2023/02/11 03:24:10;;;;;;;24.97;11.30;;;;;;;4.98;88.40;102231.94;5015266;28;20444;-68
2023/02/11 03:26:40;;;;;;;33.80;13.23;;;;;;;5.03;88.25;102223.22;5006300;28;20452;-69
2023/02/11 03:29:12;;;;;;;31.90;13.60;;;;;;;5.04;88.14;102224.84;5015105;28;20472;-67
2023/02/11 03:31:46;;;;;;;36.83;14.23;;;;;;;5.09;88.31;102211.59;5014789;28;20436;-69
2023/02/11 03:34:19;;;;;;;34.13;12.43;;;;;;;5.06;88.57;102212.03;5015853;28;20808;-68
2023/02/11 03:36:51;;;;;;;38.70;15.17;;;;;;;5.09;88.54;102211.59;5005166;28;20944;-69
2023/02/11 03:39:23;;;;;;;34.67;13.70;;;;;;;4.99;89.09;102205.91;5015396;28;20470;-69
2023/02/11 03:41:51;;;;;;;31.23;15.10;;;;;;;5.00;89.30;102210.22;5015292;28;20531;-69
2023/02/11 03:44:20;;;;;;;36.70;13.50;;;;;;;5.01;89.46;102201.16;5014954;28;20538;-69
2023/02/11 03:46:50;;;;;;;33.70;14.20;;;;;;;5.03;89.53;102205.22;5014854;28;20996;-69
2023/02/11 03:49:21;;;;;;;28.87;13.13;;;;;;;5.05;89.29;102215.78;5015046;28;20468;-69
2023/02/11 03:51:51;;;;;;;36.40;15.57;;;;;;;5.07;89.59;102213.66;5014718;28;20882;-69
2023/02/11 03:54:24;;;;;;;28.20;12.90;;;;;;;5.06;89.89;102212.03;5014722;28;20452;-68
2023/02/11 03:56:54;;;;;;;37.70;13.37;;;;;;;5.04;90.19;102214.09;5014904;28;20443;-69
2023/02/11 03:59:20;;;;;;;37.30;15.90;;;;;;;5.06;90.22;102214.72;5015063;28;20540;-68
2023/02/11 04:01:47;;;;;;;37.00;14.07;;;;;;;5.07;90.37;102219.03;5014908;28;20510;-68
2023/02/11 04:04:14;;;;;;;30.43;13.13;;;;;;;5.06;90.73;102206.66;5014907;28;20804;-69
2023/02/11 04:06:43;;;;;;;40.97;15.80;;;;;;;5.10;90.73;102217.78;5014519;28;20443;-69
2023/02/11 04:09:10;;;;;;;31.43;13.40;;;;;;;5.05;90.93;102207.72;5014257;28;20468;-68
2023/02/11 04:11:37;;;;;;;35.10;13.60;;;;;;;5.09;91.27;102211.59;5014664;28;20817;-68
2023/02/11 04:14:04;;;;;;;39.53;13.90;;;;;;;5.14;91.18;102214.41;5014621;28;20600;-68
2023/02/11 04:16:31;;;;;;;36.10;14.87;;;;;;;5.12;91.66;102221.88;5014267;28;20946;-68
2023/02/11 04:18:57;;;;;;;34.87;15.47;;;;;;;5.19;91.46;102222.63;5014506;28;20562;-69
2023/02/11 04:21:24;;;;;;;35.20;13.63;;;;;;;5.20;91.77;102218.06;5014566;28;20450;-68
2023/02/11 04:23:52;;;;;;;38.53;15.27;;;;;;;5.23;91.62;102223.00;5014509;28;20441;-68
2023/02/11 04:26:18;;;;;;;35.20;13.97;;;;;;;5.24;91.61;102225.44;5014275;28;20440;-68
2023/02/11 04:28:45;;;;;;;34.03;14.27;;;;;;;5.23;92.54;102218.44;5014013;28;20917;-69
2023/02/11 04:31:12;;;;;;;33.67;15.63;;;;;;;5.29;92.64;102212.16;5014398;28;20527;-69
2023/02/11 04:33:38;;;;;;;32.47;13.37;;;;;;;5.26;93.50;102207.22;5013929;28;20937;-69
2023/02/11 04:36:05;;;;;;;37.20;13.73;;;;;;;5.22;94.28;102206.06;5014209;28;20491;-68
2023/02/11 04:38:32;;;;;;;41.33;14.70;;;;;;;5.24;94.60;102205.84;5014051;28;20472;-68
2023/02/11 04:41:00;;;;;;;40.73;15.87;;;;;;;5.20;95.13;102200.09;5013962;28;20452;-68
2023/02/11 04:43:26;;;;;;;33.60;14.57;;;;;;;5.15;95.43;102197.25;5025749;28;20436;-68
2023/02/11 04:45:57;;;;;;;38.93;15.60;;;;;;;5.14;95.74;102198.31;5033944;28;20527;-69
2023/02/11 04:48:23;;;;;;;40.50;16.20;;;;;;;5.12;96.86;102192.31;5015098;28;20496;-68
2023/02/11 04:50:50;;;;;;;42.80;14.90;;;;;;;5.11;97.13;102192.56;5014210;28;20470;-68
2023/02/11 04:53:16;;;;;;;42.60;15.10;;;;;;;5.15;97.46;102188.38;5014141;28;20488;-69
2023/02/11 04:55:43;;;;;;;36.27;14.97;;;;;;;5.17;97.21;102187.09;5013860;28;20444;-68
2023/02/11 04:58:11;;;;;;;39.67;14.30;;;;;;;5.20;97.17;102180.47;5013783;28;20456;-68
2023/02/11 05:00:37;;;;;;;40.17;15.93;;;;;;;5.19;97.16;102176.97;5033240;28;20440;-69
2023/02/11 05:03:04;;;;;;;36.37;15.33;;;;;;;5.23;97.26;102164.72;5033694;28;20443;-69
2023/02/11 05:05:30;;;;;;;50.23;16.80;;;;;;;5.22;97.84;102171.16;5033749;28;20527;-68
2023/02/11 05:07:57;;;;;;;38.00;16.10;;;;;;;5.25;98.28;102167.16;5033308;28;20493;-68
2023/02/11 05:10:23;;;;;;;40.43;16.20;;;;;;;5.25;98.47;102167.16;5033614;28;20431;-68
2023/02/11 05:12:50;;;;;;;32.77;14.30;;;;;;;5.20;99.23;102167.03;5033500;28;20487;-69
2023/02/11 05:15:18;;;;;;;31.07;14.20;;;;;;;5.20;99.44;102159.78;5033463;28;20526;-68
2023/02/11 05:17:45;;;;;;;40.43;16.50;;;;;;;5.20;99.87;102162.47;5033103;28;20972;-68
2023/02/11 05:20:12;;;;;;;45.17;16.10;;;;;;;5.27;99.66;102151.66;5018965;28;20451;-69
2023/02/11 05:22:38;;;;;;;36.30;15.90;;;;;;;5.23;99.70;102143.22;5013490;28;20444;-68
2023/02/11 05:25:06;;;;;;;40.13;17.17;;;;;;;5.26;99.83;102140.06;5013218;28;20479;-68
2023/02/11 05:27:32;;;;;;;30.63;14.13;;;;;;;5.30;99.81;102143.13;5013051;28;20884;-67
2023/02/11 05:29:59;;;;;;;57.60;17.33;;;;;;;5.27;100.00;102143.59;5013163;28;20535;-66
2023/02/11 05:32:27;;;;;;;47.63;16.93;;;;;;;5.24;100.00;102144.88;5012572;28;20444;-68
2023/02/11 05:34:53;;;;;;;40.30;16.27;;;;;;;5.27;100.00;102139.03;5013269;28;20448;-68
2023/02/11 05:37:20;;;;;;;42.87;18.10;;;;;;;5.23;100.00;102135.16;5013235;28;21016;-68
2023/02/11 05:39:47;;;;;;;39.00;14.83;;;;;;;5.23;100.00;102132.50;5012887;28;20464;-68
2023/02/11 05:42:14;;;;;;;42.23;17.23;;;;;;;5.18;100.00;102126.97;5012498;28;20443;-68
2023/02/11 05:44:40;;;;;;;38.33;16.10;;;;;;;5.18;100.00;102132.34;5013220;28;20531;-68
2023/02/11 05:47:08;;;;;;;38.80;17.20;;;;;;;5.16;100.00;102121.00;5012911;28;20454;-67
2023/02/11 05:49:36;;;;;;;38.27;15.50;;;;;;;5.11;100.00;102110.13;5012755;28;20471;-68
2023/02/11 05:52:02;;;;;;;43.90;17.30;;;;;;;5.16;100.00;102122.88;5012871;28;20956;-68
2023/02/11 05:54:29;;;;;;;42.57;16.83;;;;;;;5.18;100.00;102126.97;5012867;28;20566;-68
2023/02/11 05:56:56;;;;;;;50.70;17.50;;;;;;;5.20;100.00;102121.38;5012883;28;20452;-68
2023/02/11 05:59:22;;;;;;;37.00;17.03;;;;;;;5.16;100.00;102121.00;5013101;28;20476;-67
2023/02/11 06:01:49;;;;;;;41.80;17.57;;;;;;;5.15;100.00;102108.63;5017351;28;20447;-68
2023/02/11 06:04:15;;;;;;;39.10;16.17;;;;;;;5.17;100.00;102119.13;5016714;28;20444;-68
2023/02/11 06:06:43;;;;;;;36.70;16.97;;;;;;;5.24;100.00;102131.44;5017253;28;20440;-68
2023/02/11 06:09:10;;;;;;;41.00;16.70;;;;;;;5.22;100.00;102138.91;5016394;28;20486;-68
2023/02/11 06:11:37;;;;;;;41.23;17.30;;;;;;;5.26;100.00;102134.69;5016793;28;20448;-68
2023/02/11 06:14:04;;;;;;;49.70;19.10;;;;;;;5.32;100.00;102136.50;5016515;28;20571;-68
2023/02/11 06:16:30;;;;;;;40.90;16.00;;;;;;;5.31;100.00;102132.19;5017666;28;20455;-68
2023/02/11 06:18:57;;;;;;;40.53;17.87;;;;;;;5.31;100.00;102129.50;5016425;28;20522;-67
2023/02/11 06:21:23;;;;;;;46.83;16.77;;;;;;;5.35;100.00;102131.69;5016879;28;20475;-67
2023/02/11 06:23:51;;;;;;;37.70;16.20;;;;;;;5.39;100.00;102131.00;5016622;28;20808;-68
2023/02/11 06:26:20;;;;;;;46.83;17.80;;;;;;;5.48;100.00;102126.13;5016487;28;20455;-68
2023/02/11 06:28:47;;;;;;;45.63;18.97;;;;;;;5.42;100.00;102106.38;5016291;28;21015;-68
2023/02/11 06:31:13;;;;;;;40.83;17.27;;;;;;;5.42;100.00;102114.44;5016735;28;20446;-67
2023/02/11 06:33:40;;;;;;;43.33;19.17;;;;;;;5.40;100.00;102107.66;5016331;28;20484;-68
2023/02/11 06:36:13;;;;;;;42.17;18.43;;;;;;;5.39;100.00;102096.09;5016439;28;20444;-68
2023/02/11 06:38:39;;;;;;;45.27;19.47;;;;;;;5.43;100.00;102099.16;5016049;28;20460;-68
2023/02/11 06:41:09;;;;;;;40.97;19.67;;;;;;;5.41;100.00;102095.88;5016679;28;20450;-68
2023/02/11 06:43:36;;;;;;;42.60;18.13;;;;;;;5.41;100.00;102104.75;5016781;28;20436;-68
2023/02/11 06:46:02;;;;;;;38.40;17.70;;;;;;;5.42;100.00;102101.00;5033237;28;20455;-68
2023/02/11 06:48:29;;;;;;;61.43;20.53;;;;;;;5.47;100.00;102098.44;5035870;28;20905;-68
2023/02/11 06:50:55;;;;;;;49.23;19.10;;;;;;;5.47;100.00;102105.69;5036139;28;20493;-68
2023/02/11 06:53:22;;;;;;;45.27;19.40;;;;;;;5.49;100.00;102106.28;5036076;28;20487;-68
2023/02/11 06:55:48;;;;;;;58.27;19.10;;;;;;;5.50;100.00;102116.00;5035862;28;20538;-68
2023/02/11 06:58:16;;;;;;;48.93;18.90;;;;;;;5.50;100.00;102116.00;5018640;28;20825;-68
2023/02/11 07:00:43;;;;;;;54.57;18.23;;;;;;;5.57;100.00;102116.69;4996312;28;20452;-68
2023/02/11 07:03:10;;;;;;;49.80;21.10;;;;;;;5.66;100.00;102115.31;4996618;28;20479;-68
2023/02/11 07:05:37;;;;;;;45.13;18.87;;;;;;;5.75;100.00;102119.31;4996488;28;20501;-68
2023/02/11 07:08:04;;;;;;;52.07;18.80;;;;;;;5.77;100.00;102117.22;4995967;28;20492;-68
2023/02/11 07:10:31;;;;;;;56.03;19.50;;;;;;;5.85;100.00;102110.72;4998008;28;20488;-68
2023/02/11 07:12:57;;;;;;;48.23;17.93;;;;;;;5.94;100.00;102103.97;5015682;28;20531;-69
2023/02/11 07:15:25;;;;;;;52.87;19.57;;;;;;;5.96;100.00;102109.09;5014379;28;20953;-68
2023/02/11 07:17:52;;;;;;;52.90;17.20;;;;;;;5.96;100.00;102088.41;4996276;28;20882;-69
2023/02/11 07:20:18;;;;;;;43.97;19.70;;;;;;;6.05;100.00;102105.84;5011259;28;20458;-69
2023/02/11 07:22:45;;;;;;;49.93;18.47;;;;;;;6.01;100.00;102090.38;5015529;28;20447;-69
2023/02/11 07:25:11;;;;;;;52.30;19.37;;;;;;;6.11;100.00;102097.88;5015316;28;20444;-69
2023/02/11 07:27:38;;;;;;;50.03;19.10;;;;;;;6.15;100.00;102097.16;5015161;28;20953;-69
2023/02/11 07:30:06;;;;;;;38.97;17.33;;;;;;;6.26;100.00;102100.94;5015412;28;21004;-69
2023/02/11 07:32:34;;;;;;;43.20;18.83;;;;;;;6.17;100.00;102105.84;5015727;28;20448;-69
2023/02/11 07:35:00;;;;;;;43.53;17.40;;;;;;;6.24;100.00;102093.09;5015176;28;20575;-69
2023/02/11 07:37:27;;;;;;;46.13;16.93;;;;;;;6.32;100.00;102081.16;5015583;28;20456;-69
2023/02/11 07:39:53;;;;;;;51.40;18.20;;;;;;;6.46;100.00;102095.16;5015174;28;20465;-68
2023/02/11 07:42:20;;;;;;;60.70;19.80;;;;;;;6.42;100.00;102099.38;5015360;28;20519;-69
2023/02/11 07:44:47;;;;;;;39.03;17.60;;;;;;;6.46;100.00;102098.72;5014690;28;20440;-69
2023/02/11 07:47:14;;;;;;;44.20;18.03;;;;;;;6.49;100.00;102100.09;5015108;28;20459;-68
2023/02/11 07:49:42;;;;;;;60.07;20.53;;;;;;;6.52;100.00;102107.69;5017166;28;20460;-68
2023/02/11 07:52:09;;;;;;;51.10;17.40;;;;;;;6.56;100.00;102092.72;5035008;28;20527;-69
2023/02/11 07:54:35;;;;;;;40.87;16.23;;;;;;;6.59;100.00;102092.22;5034899;28;20483;-69
2023/02/11 07:57:02;;;;;;;48.03;19.23;;;;;;;6.69;100.00;102103.22;5034964;28;20471;-68
2023/02/11 07:59:28;;;;;;;51.87;20.07;;;;;;;6.68;100.00;102090.78;5034937;28;20545;-68
2023/02/11 08:01:55;;;;;;;43.60;17.67;;;;;;;6.66;100.00;102092.09;5032321;28;20446;-69
2023/02/11 08:04:21;;;;;;;39.17;16.93;;;;;;;6.75;100.00;102096.88;5015133;28;20530;-69
2023/02/11 08:06:51;;;;;;;37.10;17.20;;;;;;;6.67;100.00;102099.94;5014659;28;20936;-69
2023/02/11 08:09:18;;;;;;;42.33;16.97;;;;;;;6.51;100.00;102106.88;5014582;28;20483;-69
2023/02/11 08:11:45;;;;;;;44.53;18.17;;;;;;;6.55;100.00;102102.66;5016317;28;20466;-70
2023/02/11 08:14:12;;;;;;;39.93;16.70;;;;;;;6.60;100.00;102117.28;5011720;28;20486;-70
2023/02/11 08:16:40;;;;;;;41.27;19.40;;;;;;;6.55;100.00;102118.81;5010460;28;20444;-70
2023/02/11 08:19:08;;;;;;;42.70;17.20;;;;;;;6.54;100.00;102127.13;5010724;28;20586;-70
2023/02/11 08:21:35;;;;;;;44.10;18.03;;;;;;;6.49;100.00;102133.22;5016410;28;20446;-70
2023/02/11 08:24:03;;;;;;;44.53;16.20;;;;;;;6.49;100.00;102130.50;5033803;28;20467;-70
2023/02/11 08:26:33;;;;;;;39.93;15.80;;;;;;;6.45;100.00;102147.38;5034086;28;20941;-71
2023/02/11 08:29:01;;;;;;;40.73;17.77;;;;;;;6.48;100.00;102141.53;5023241;28;20491;-70
2023/02/11 08:31:30;;;;;;;41.47;17.50;;;;;;;6.43;100.00;102141.41;5014330;28;20948;-70
2023/02/11 08:33:57;;;;;;;41.20;17.20;;;;;;;6.37;100.00;102137.75;5014174;28;20574;-71
2023/02/11 08:36:28;;;;;;;39.43;18.17;;;;;;;6.29;100.00;102136.28;5012300;28;20470;-70
2023/02/11 08:38:55;;;;;;;44.50;19.03;;;;;;;6.32;100.00;102140.34;5015575;28;20844;-71
2023/02/11 08:41:23;;;;;;;41.33;16.83;;;;;;;6.25;100.00;102143.16;5013516;28;20443;-71
2023/02/11 08:43:50;;;;;;;42.47;16.23;;;;;;;6.34;100.00;102143.63;5013768;28;20483;-70
2023/02/11 08:46:18;;;;;;;47.80;18.30;;;;;;;6.41;100.00;102157.78;5013951;28;20526;-69
2023/02/11 08:48:46;;;;;;;46.40;19.07;;;;;;;6.46;100.00;102141.78;5013807;28;21028;-68
2023/02/11 08:51:15;;;;;;;45.53;17.87;;;;;;;6.46;100.00;102130.16;5014354;28;20447;-71
2023/02/11 08:53:42;;;;;;;41.47;17.20;;;;;;;6.39;100.00;102124.09;5013156;28;21091;-69
2023/02/11 08:56:10;;;;;;;41.50;16.77;;;;;;;6.43;100.00;102122.56;5013812;28;20472;-69
2023/02/11 08:58:38;;;;;;;45.60;18.90;;;;;;;6.38;100.00;102128.66;5013977;28;20464;-70
2023/02/11 09:01:09;;;;;;;31.47;14.07;;;;;;;6.38;100.00;102127.84;5013001;28;20796;-69
2023/02/11 09:03:35;;;;;;;37.03;16.27;;;;;;;6.48;100.00;102136.97;5013135;28;20443;-69
2023/02/11 09:06:05;;;;;;;45.13;18.37;;;;;;;6.50;100.00;102125.94;5012822;28;20816;-69
2023/02/11 09:08:31;;;;;;;39.33;16.93;;;;;;;6.47;100.00;102126.44;5013399;28;20495;-69
2023/02/11 09:10:58;;;;;;;39.97;16.87;;;;;;;6.54;100.00;102116.34;5013842;28;20542;-69
2023/02/11 09:13:24;;;;;;;46.23;17.10;;;;;;;6.59;100.00;102132.59;5013614;28;20444;-69
2023/02/11 09:15:52;;;;;;;39.17;17.80;;;;;;;6.64;100.00;102140.81;5013282;28;21009;-69
2023/02/11 09:18:19;;;;;;;35.10;16.63;;;;;;;6.63;100.00;102141.84;5012996;28;20466;-69
2023/02/11 09:20:45;;;;;;;45.70;18.13;;;;;;;6.63;100.00;102144.53;5024236;28;20522;-69
2023/02/11 09:23:12;;;;;;;47.23;17.47;;;;;;;6.59;100.00;102146.06;5033389;28;20817;-70
2023/02/11 09:25:40;;;;;;;35.33;14.93;;;;;;;6.62;100.00;102171.72;5016049;28;20811;-69
2023/02/11 09:28:06;;;;;;;57.70;18.40;;;;;;;6.70;100.00;102174.88;5013510;28;20452;-69
2023/02/11 09:30:33;;;;;;;45.60;18.07;;;;;;;6.78;100.00;102171.00;5013521;28;20466;-69
2023/02/11 09:33:01;;;;;;;40.73;16.10;;;;;;;6.74;100.00;102175.22;5013213;28;20506;-69
2023/02/11 09:35:28;;;;;;;36.73;15.60;;;;;;;6.73;100.00;102160.94;5012537;28;20492;-69
2023/02/11 09:37:55;;;;;;;44.23;17.17;;;;;;;6.73;100.00;102152.00;5021573;28;20563;-70
2023/02/11 09:40:22;;;;;;;40.83;14.80;;;;;;;6.73;100.00;102152.00;5012280;28;20460;-69
2023/02/11 09:42:53;;;;;;;47.63;18.07;;;;;;;6.76;100.00;102167.72;5012008;28;20463;-69
2023/02/11 09:45:24;;;;;;;37.47;16.47;;;;;;;6.72;100.00;102170.06;5013242;28;20806;-70
2023/02/11 09:47:55;;;;;;;44.00;14.80;;;;;;;6.77;100.00;102180.13;5014062;28;20463;-70
2023/02/11 09:50:31;;;;;;;48.97;16.00;;;;;;;6.78;100.00;102174.50;5013928;28;20427;-70
2023/02/11 09:53:01;;;;;;;38.83;16.07;;;;;;;6.82;100.00;102177.56;4993877;28;20931;-69
2023/02/11 09:55:32;;;;;;;34.63;14.53;;;;;;;6.88;100.00;102181.16;4993704;28;20592;-69
2023/02/11 09:58:04;;;;;;;37.90;14.87;;;;;;;6.80;100.00;102188.53;5009016;28;20526;-69
2023/02/11 10:00:37;;;;;;;37.40;15.20;;;;;;;6.80;100.00;102188.53;5006875;28;20483;-70
2023/02/11 10:03:21;;;;;;;34.70;14.37;;;;;;;6.83;100.00;102198.03;5020977;28;20479;-69
2023/02/11 10:06:07;;;;;;;40.27;14.60;;;;;;;6.92;100.00;102209.28;5032764;28;20936;-69
2023/02/11 10:08:41;;;;;;;38.53;14.10;;;;;;;6.97;100.00;102198.59;5032502;28;20554;-69
2023/02/11 10:11:15;;;;;;;33.70;15.27;;;;;;;6.98;100.00;102189.47;5032991;28;20441;-69
2023/02/11 10:13:54;;;;;;;35.97;15.00;;;;;;;6.88;100.00;102186.56;5032633;28;20426;-69
2023/02/11 10:16:35;;;;;;;39.63;15.20;;;;;;;6.92;100.00;102187.72;5015444;28;20985;-69
2023/02/11 10:19:13;;;;;;;33.73;13.27;;;;;;;6.87;100.00;102179.53;5013128;28;20602;-69
2023/02/11 10:21:53;;;;;;;29.77;13.80;;;;;;;6.90;100.00;102173.66;5013263;28;20503;-69
2023/02/11 10:24:20;;;;;;;31.50;13.73;;;;;;;6.95;100.00;102176.44;5013148;28;20435;-69
2023/02/11 10:26:47;;;;;;;35.67;13.83;;;;;;;6.92;100.00;102180.47;5012792;28;20539;-69
2023/02/11 10:29:23;;;;;;;38.77;15.30;;;;;;;7.01;100.00;102180.91;5012633;28;20474;-69
2023/02/11 10:31:50;;;;;;;25.70;13.50;;;;;;;7.03;100.00;102185.00;5013108;28;20530;-69
2023/02/11 10:34:17;;;;;;;42.33;15.57;;;;;;;7.06;100.00;102175.63;5012123;28;21000;-68
2023/02/11 10:36:46;;;;;;;28.87;11.97;;;;;;;6.96;100.00;102188.88;5012691;28;20819;-70
2023/02/11 10:39:15;;;;;;;47.13;14.87;;;;;;;6.98;100.00;102176.81;5012847;28;20468;-70
2023/02/11 10:41:45;;;;;;;39.20;14.80;;;;;;;7.15;100.00;102184.16;5010401;28;20444;-68
2023/02/11 10:44:23;;;;;;;44.87;14.17;;;;;;;7.19;100.00;102186.13;5012714;28;20483;-68
2023/02/11 10:46:50;;;;;;;37.80;12.97;;;;;;;7.18;100.00;102189.91;4995659;28;20443;-70
2023/02/11 10:49:34;;;;;;;40.00;15.70;;;;;;;7.17;100.00;102190.13;5001463;28;20462;-70
2023/02/11 10:52:16;;;;;;;35.83;13.40;;;;;;;7.15;100.00;102209.22;5016238;28;20444;-69
2023/02/11 10:54:55;;;;;;;35.73;15.10;;;;;;;7.18;100.00;102210.63;5016315;28;20468;-69
2023/02/11 10:57:21;;;;;;;33.03;13.27;;;;;;;7.19;100.00;102194.22;5015585;28;20933;-70
2023/02/11 10:59:48;;;;;;;29.90;13.33;;;;;;;7.18;100.00;102181.81;5016182;28;20542;-69
2023/02/11 11:02:24;;;;;;;32.57;13.07;;;;;;;7.11;100.00;102173.03;5015949;28;20535;-70
2023/02/11 11:04:56;;;;;;;39.47;14.80;;;;;;;7.14;100.00;102169.88;5016002;28;20793;-70
2023/02/11 11:07:27;;;;;;;32.63;13.17;;;;;;;7.18;100.00;102165.63;5016122;28;20435;-69
2023/02/11 11:09:58;;;;;;;34.97;15.50;;;;;;;7.19;100.00;102169.16;5015107;28;21055;-68
2023/02/11 11:12:27;;;;;;;34.80;13.40;;;;;;;7.15;100.00;102174.19;5015673;28;20432;-69
2023/02/11 11:14:55;;;;;;;37.63;15.30;;;;;;;7.07;100.00;102164.59;5015529;28;20479;-69
2023/02/11 11:17:22;;;;;;;41.43;15.30;;;;;;;7.08;100.00;102165.41;5013829;28;20448;-70
2023/02/11 11:19:48;;;;;;;34.33;13.30;;;;;;;7.07;100.00;102156.50;5015757;28;20718;-69
2023/02/11 11:22:22;;;;;;;41.40;15.50;;;;;;;7.12;100.00;102168.47;5015588;28;20451;-69
2023/02/11 11:24:53;;;;;;;38.00;15.20;;;;;;;7.12;100.00;102177.34;5015880;28;20424;-69